createdAt,value
2022-09-15T00:00:03.476Z,52.37
2022-09-15T00:01:03.470Z,51.70
2022-09-15T00:02:03.579Z,48.20
2022-09-15T00:03:03.528Z,49.80
2022-09-15T00:04:03.441Z,50.65
2022-09-15T00:05:03.439Z,50.13
2022-09-15T00:06:03.429Z,52.08
2022-09-15T00:07:03.428Z,51.98
2022-09-15T00:08:03.597Z,49.11
2022-09-15T00:09:03.421Z,54.27
2022-09-15T00:10:03.405Z,50.93
2022-09-15T00:11:03.401Z,50.74
2022-09-15T00:12:03.392Z,47.47
2022-09-15T00:13:03.384Z,47.59
2022-09-15T00:14:03.384Z,50.17
2022-09-15T00:15:03.372Z,52.86
2022-09-15T00:16:03.365Z,48.28
2022-09-15T00:17:03.428Z,55.10
2022-09-15T00:18:03.353Z,51.65
2022-09-15T00:19:03.608Z,49.16
2022-09-15T00:20:03.335Z,51.82
2022-09-15T00:21:03.324Z,51.19
2022-09-15T00:22:03.316Z,49.83
2022-09-15T00:23:03.316Z,50.59
2022-09-15T00:24:03.328Z,49.83
2022-09-15T00:25:03.478Z,51.25
2022-09-15T00:26:03.292Z,49.81
2022-09-15T00:27:03.290Z,52.73
2022-09-15T00:28:03.279Z,53.83
2022-09-15T00:29:03.264Z,53.54
2022-09-15T00:30:03.264Z,50.37
2022-09-15T00:31:03.313Z,53.96
2022-09-15T00:32:03.239Z,49.73
2022-09-15T00:33:03.236Z,51.62
2022-09-15T00:34:03.234Z,51.89
2022-09-15T00:35:03.233Z,52.17
2022-09-15T00:36:03.211Z,51.53
2022-09-15T00:37:03.208Z,50.71
2022-09-15T00:38:03.212Z,53.63
2022-09-15T00:39:03.230Z,53.13
2022-09-15T00:40:03.251Z,47.85
2022-09-15T00:41:03.184Z,47.36
2022-09-15T00:42:03.173Z,47.98
2022-09-15T00:43:03.172Z,47.28
2022-09-15T00:44:03.168Z,48.49
2022-09-15T00:45:03.308Z,52.84
2022-09-15T00:46:03.196Z,50.29
2022-09-15T00:47:18.648Z,53.02
2022-09-15T00:48:05.135Z,52.36
2022-09-15T00:49:03.131Z,49.17
2022-09-15T00:50:03.128Z,47.37
2022-09-15T00:51:03.123Z,50.80
2022-09-15T00:52:03.107Z,53.19
2022-09-15T00:53:03.097Z,52.60
2022-09-15T00:54:03.083Z,52.19
2022-09-15T00:55:03.102Z,50.01
2022-09-15T00:56:03.088Z,48.90
2022-09-15T00:57:03.068Z,50.11
2022-09-15T00:58:03.060Z,54.10
2022-09-15T00:59:03.067Z,51.93
2022-09-15T01:00:03.059Z,52.81
2022-09-15T01:01:03.106Z,50.05
2022-09-15T01:02:03.086Z,52.65
2022-09-15T01:03:03.036Z,51.28
2022-09-15T01:04:03.008Z,49.84
2022-09-15T01:05:03.017Z,50.58
2022-09-15T01:06:02.995Z,54.23
2022-09-15T01:07:03.007Z,54.02
2022-09-15T01:08:02.984Z,53.97
2022-09-15T01:09:02.976Z,49.55
2022-09-15T01:10:02.980Z,51.26
2022-09-15T01:11:02.963Z,51.63
2022-09-15T01:12:02.988Z,51.40
2022-09-15T01:13:02.947Z,47.72
2022-09-15T01:14:02.935Z,49.79
2022-09-15T01:15:02.929Z,49.84
2022-09-15T01:16:02.963Z,51.11
2022-09-15T01:17:02.935Z,49.63
2022-09-15T01:18:02.923Z,50.74
2022-09-15T01:19:02.917Z,50.85
2022-09-15T01:20:02.900Z,51.76
2022-09-15T01:21:02.895Z,53.39
2022-09-15T01:22:02.901Z,50.45
2022-09-15T01:23:02.890Z,52.03
2022-09-15T01:24:02.875Z,51.99
2022-09-15T01:25:02.867Z,52.59
2022-09-15T01:26:02.855Z,56.25
2022-09-15T01:27:18.466Z,54.15
2022-09-15T01:28:04.858Z,49.41
2022-09-15T01:29:02.826Z,54.27
2022-09-15T01:30:02.836Z,51.36
2022-09-15T01:31:02.826Z,48.01
2022-09-15T01:32:02.827Z,52.75
2022-09-15T01:33:02.827Z,48.82
2022-09-15T01:34:02.807Z,51.07
2022-09-15T01:35:02.799Z,50.88
2022-09-15T01:36:02.781Z,55.03
2022-09-15T01:37:02.783Z,48.23
2022-09-15T01:38:02.776Z,49.06
2022-09-15T01:39:02.779Z,48.44
2022-09-15T01:40:02.815Z,52.63
2022-09-15T01:41:02.751Z,50.08
2022-09-15T01:42:02.743Z,49.46
2022-09-15T01:43:02.759Z,50.83
2022-09-15T01:44:02.734Z,51.13
2022-09-15T01:45:02.723Z,49.77
2022-09-15T01:46:02.781Z,47.92
2022-09-15T01:47:02.715Z,49.48
2022-09-15T01:48:02.707Z,48.82
2022-09-15T01:49:02.710Z,47.17
2022-09-15T01:50:02.703Z,47.22
2022-09-15T01:51:02.695Z,48.98
2022-09-15T01:52:02.686Z,49.63
2022-09-15T01:53:02.670Z,48.51
2022-09-15T01:54:02.702Z,49.84
2022-09-15T01:55:02.669Z,50.86
2022-09-15T01:56:02.646Z,48.97
2022-09-15T01:57:02.649Z,50.26
2022-09-15T01:58:02.642Z,48.55
2022-09-15T01:59:02.630Z,48.64
2022-09-15T02:00:03.625Z,51.20
2022-09-15T02:01:02.711Z,50.46
2022-09-15T02:02:02.662Z,51.79
2022-09-15T02:03:02.607Z,49.02
2022-09-15T02:04:02.600Z,47.75
2022-09-15T02:05:02.610Z,49.69
2022-09-15T02:06:02.583Z,50.21
2022-09-15T02:07:02.584Z,51.47
2022-09-15T02:08:02.569Z,48.71
2022-09-15T02:09:02.568Z,51.77
2022-09-15T02:10:02.577Z,50.90
2022-09-15T02:11:02.551Z,50.93
2022-09-15T02:12:02.538Z,50.36
2022-09-15T02:13:02.538Z,50.34
2022-09-15T02:14:02.531Z,51.09
2022-09-15T02:15:02.524Z,50.37
2022-09-15T02:16:02.568Z,49.71
2022-09-15T02:17:02.509Z,51.50
2022-09-15T02:18:02.503Z,52.85
2022-09-15T02:19:02.498Z,51.11
2022-09-15T02:20:02.487Z,52.17
2022-09-15T02:21:02.486Z,52.23
2022-09-15T02:22:02.466Z,49.01
2022-09-15T02:23:02.471Z,50.91
2022-09-15T02:24:02.463Z,50.99
2022-09-15T02:25:02.464Z,50.83
2022-09-15T02:26:02.458Z,48.66
2022-09-15T02:27:02.458Z,51.28
2022-09-15T02:28:02.434Z,52.91
2022-09-15T02:29:02.420Z,49.28
2022-09-15T02:30:02.418Z,52.40
2022-09-15T02:31:02.422Z,50.58
2022-09-15T02:32:06.881Z,50.05
2022-09-15T02:33:03.411Z,49.50
2022-09-15T02:34:02.436Z,49.71
2022-09-15T02:35:02.398Z,52.14
2022-09-15T02:36:02.377Z,52.19
2022-09-15T02:37:02.398Z,50.71
2022-09-15T02:38:02.363Z,49.88
2022-09-15T02:39:02.362Z,51.03
2022-09-15T02:40:02.417Z,51.95
2022-09-15T02:41:02.351Z,49.59
2022-09-15T02:42:02.363Z,50.53
2022-09-15T02:43:02.326Z,51.61
2022-09-15T02:44:02.323Z,49.72
2022-09-15T02:45:02.329Z,50.80
2022-09-15T02:46:02.345Z,51.52
2022-09-15T02:47:02.310Z,51.64
2022-09-15T02:48:02.299Z,51.41
2022-09-15T02:49:02.299Z,52.11
2022-09-15T02:50:02.291Z,51.93
2022-09-15T02:51:02.287Z,53.37
2022-09-15T02:52:02.274Z,50.77
2022-09-15T02:53:02.282Z,50.21
2022-09-15T02:54:02.258Z,51.59
2022-09-15T02:55:02.249Z,52.21
2022-09-15T02:56:02.238Z,51.79
2022-09-15T02:57:02.234Z,49.35
2022-09-15T02:58:02.246Z,49.78
2022-09-15T02:59:02.227Z,50.71
2022-09-15T03:00:02.210Z,51.74
2022-09-15T03:01:02.256Z,50.85
2022-09-15T03:02:02.248Z,52.35
2022-09-15T03:03:02.191Z,50.94
2022-09-15T03:04:02.197Z,52.50
2022-09-15T03:05:02.182Z,52.43
2022-09-15T03:06:02.174Z,52.76
2022-09-15T03:07:02.157Z,51.00
2022-09-15T03:08:02.155Z,51.93
2022-09-15T03:09:02.163Z,53.47
2022-09-15T03:10:02.151Z,52.06
2022-09-15T03:11:02.157Z,51.37
2022-09-15T03:12:02.134Z,51.51
2022-09-15T03:13:02.116Z,51.78
2022-09-15T03:14:02.118Z,51.76
2022-09-15T03:15:02.126Z,51.92
2022-09-15T03:16:02.142Z,51.97
2022-09-15T03:17:02.098Z,53.88
2022-09-15T03:18:02.096Z,52.52
2022-09-15T03:19:02.131Z,53.98
2022-09-15T03:20:02.087Z,52.66
2022-09-15T03:21:02.069Z,53.49
2022-09-15T03:22:02.045Z,53.99
2022-09-15T03:23:02.042Z,54.45
2022-09-15T03:24:02.070Z,54.52
2022-09-15T03:25:02.046Z,55.39
2022-09-15T03:26:02.045Z,53.91
2022-09-15T03:27:02.026Z,52.92
2022-09-15T03:28:02.019Z,54.24
2022-09-15T03:29:02.022Z,52.61
2022-09-15T03:30:02.006Z,54.35
2022-09-15T03:31:01.992Z,55.79
2022-09-15T03:32:01.990Z,53.22
2022-09-15T03:33:01.994Z,54.08
2022-09-15T03:34:01.982Z,54.21
2022-09-15T03:35:02.060Z,51.51
2022-09-15T03:36:01.993Z,52.86
2022-09-15T03:37:01.958Z,55.09
2022-09-15T03:38:01.945Z,53.31
2022-09-15T03:39:01.942Z,52.27
2022-09-15T03:40:01.993Z,53.68
2022-09-15T03:41:01.926Z,54.58
2022-09-15T03:42:01.921Z,54.61
2022-09-15T03:43:01.914Z,54.14
2022-09-15T03:44:01.898Z,53.92
2022-09-15T03:45:01.901Z,54.42
2022-09-15T03:46:01.977Z,55.62
2022-09-15T03:47:01.881Z,55.90
2022-09-15T03:48:01.878Z,54.75
2022-09-15T03:49:01.869Z,54.82
2022-09-15T03:50:01.868Z,53.86
2022-09-15T03:51:01.870Z,55.24
2022-09-15T03:52:01.833Z,55.45
2022-09-15T03:53:02.837Z,55.07
2022-09-15T03:54:01.834Z,56.42
2022-09-15T03:55:01.836Z,54.41
2022-09-15T03:56:01.839Z,55.14
2022-09-15T03:57:01.806Z,53.75
2022-09-15T03:58:01.805Z,53.48
2022-09-15T03:59:01.818Z,54.59
2022-09-15T04:00:01.788Z,54.55
2022-09-15T04:01:01.826Z,56.51
2022-09-15T04:02:01.833Z,55.80
2022-09-15T04:03:01.759Z,54.45
2022-09-15T04:04:01.767Z,54.06
2022-09-15T04:05:01.760Z,55.07
2022-09-15T04:06:01.745Z,53.63
2022-09-15T04:07:01.753Z,56.32
2022-09-15T04:08:01.730Z,54.90
2022-09-15T04:09:01.722Z,53.99
2022-09-15T04:10:01.726Z,54.03
2022-09-15T04:11:01.710Z,54.24
2022-09-15T04:12:01.725Z,55.89
2022-09-15T04:13:01.694Z,55.65
2022-09-15T04:14:01.686Z,53.74
2022-09-15T04:15:01.682Z,54.56
2022-09-15T04:16:01.710Z,56.40
2022-09-15T04:17:01.669Z,55.08
2022-09-15T04:18:01.650Z,57.23
2022-09-15T04:19:01.654Z,57.28
2022-09-15T04:20:01.642Z,57.87
2022-09-15T04:21:01.641Z,58.15
2022-09-15T04:22:01.718Z,56.65
2022-09-15T04:23:01.619Z,56.23
2022-09-15T04:24:01.613Z,57.38
2022-09-15T04:25:01.609Z,57.21
2022-09-15T04:26:01.594Z,57.31
2022-09-15T04:27:01.596Z,57.29
2022-09-15T04:28:01.596Z,56.52
2022-09-15T04:29:04.264Z,57.23
2022-09-15T04:30:02.581Z,57.77
2022-09-15T04:31:02.612Z,57.94
2022-09-15T04:32:01.555Z,58.50
2022-09-15T04:33:01.565Z,58.56
2022-09-15T04:34:01.537Z,59.01
2022-09-15T04:35:01.526Z,58.30
2022-09-15T04:36:01.517Z,59.56
2022-09-15T04:37:01.510Z,59.52
2022-09-15T04:38:01.527Z,60.74
2022-09-15T04:39:01.507Z,59.77
2022-09-15T04:40:01.542Z,59.21
2022-09-15T04:41:01.481Z,59.28
2022-09-15T04:42:01.473Z,60.25
2022-09-15T04:43:01.480Z,59.02
2022-09-15T04:44:01.480Z,58.92
2022-09-15T04:45:01.457Z,60.89
2022-09-15T04:46:01.457Z,60.42
2022-09-15T04:47:01.516Z,58.64
2022-09-15T04:48:01.445Z,58.73
2022-09-15T04:49:01.445Z,58.89
2022-09-15T04:50:01.416Z,57.92
2022-09-15T04:51:01.424Z,57.34
2022-09-15T04:52:01.425Z,58.27
2022-09-15T04:53:01.405Z,58.76
2022-09-15T04:54:01.421Z,57.02
2022-09-15T04:55:01.413Z,57.63
2022-09-15T04:56:01.381Z,57.75
2022-09-15T04:57:01.381Z,57.77
2022-09-15T04:58:01.373Z,59.26
2022-09-15T04:59:04.232Z,57.97
2022-09-15T05:00:02.353Z,59.27
2022-09-15T05:01:01.412Z,61.12
2022-09-15T05:02:01.407Z,61.88
2022-09-15T05:03:01.333Z,61.55
2022-09-15T05:04:01.342Z,61.77
2022-09-15T05:05:01.334Z,61.59
2022-09-15T05:06:01.308Z,59.11
2022-09-15T05:07:01.304Z,59.28
2022-09-15T05:08:01.293Z,59.44
2022-09-15T05:09:01.287Z,59.02
2022-09-15T05:10:01.313Z,58.63
2022-09-15T05:11:01.265Z,58.97
2022-09-15T05:12:01.278Z,59.57
2022-09-15T05:13:01.266Z,62.27
2022-09-15T05:14:01.251Z,60.34
2022-09-15T05:15:01.257Z,59.90
2022-09-15T05:16:01.334Z,60.13
2022-09-15T05:17:01.240Z,59.53
2022-09-15T05:18:01.225Z,58.01
2022-09-15T05:19:01.234Z,58.34
2022-09-15T05:20:01.232Z,57.95
2022-09-15T05:21:01.228Z,57.54
2022-09-15T05:22:01.207Z,58.25
2022-09-15T05:23:01.193Z,58.51
2022-09-15T05:24:01.189Z,60.99
2022-09-15T05:25:01.180Z,60.80
2022-09-15T05:26:01.199Z,60.17
2022-09-15T05:27:01.165Z,59.06
2022-09-15T05:28:01.157Z,59.63
2022-09-15T05:29:01.145Z,59.43
2022-09-15T05:30:31.959Z,58.83
2022-09-15T05:31:03.240Z,58.93
2022-09-15T05:32:01.153Z,63.86
2022-09-15T05:33:01.125Z,61.45
2022-09-15T05:34:01.126Z,60.03
2022-09-15T05:35:01.121Z,60.66
2022-09-15T05:36:01.099Z,60.69
2022-09-15T05:37:01.111Z,61.01
2022-09-15T05:38:01.085Z,59.85
2022-09-15T05:39:01.088Z,69.25
2022-09-15T05:40:03.257Z,63.28
2022-09-15T05:41:02.061Z,58.09
2022-09-15T05:42:01.087Z,58.64
2022-09-15T05:43:01.066Z,59.65
2022-09-15T05:44:01.049Z,57.85
2022-09-15T05:45:01.036Z,58.16
2022-09-15T05:46:02.246Z,58.68
2022-09-15T05:47:01.110Z,57.65
2022-09-15T05:48:01.017Z,56.26
2022-09-15T05:49:01.012Z,57.22
2022-09-15T05:50:01.017Z,57.52
2022-09-15T05:51:00.993Z,57.05
2022-09-15T05:52:00.985Z,57.32
2022-09-15T05:53:01.983Z,56.97
2022-09-15T05:54:00.968Z,57.94
2022-09-15T05:55:00.960Z,59.28
2022-09-15T05:56:00.948Z,58.95
2022-09-15T05:57:00.945Z,59.92
2022-09-15T05:58:00.969Z,61.40
2022-09-15T05:59:00.939Z,63.13
2022-09-15T06:00:00.949Z,67.31
2022-09-15T06:01:00.921Z,63.96
2022-09-15T06:02:00.988Z,69.60
2022-09-15T06:03:01.005Z,75.62
2022-09-15T06:04:00.900Z,65.78
2022-09-15T06:05:00.902Z,64.92
2022-09-15T06:06:00.977Z,59.46
2022-09-15T06:07:00.874Z,59.58
2022-09-15T06:08:00.862Z,57.95
2022-09-15T06:09:01.207Z,59.11
2022-09-15T06:10:00.852Z,57.93
2022-09-15T06:11:00.840Z,59.24
2022-09-15T06:12:00.836Z,58.59
2022-09-15T06:13:00.857Z,59.76
2022-09-15T06:14:00.845Z,60.36
2022-09-15T06:15:00.807Z,58.92
2022-09-15T06:16:00.909Z,58.03
2022-09-15T06:17:00.800Z,59.80
2022-09-15T06:18:00.812Z,59.16
2022-09-15T06:19:00.784Z,58.72
2022-09-15T06:20:00.848Z,59.00
2022-09-15T06:21:00.764Z,59.69
2022-09-15T06:22:00.756Z,58.50
2022-09-15T06:23:00.817Z,58.86
2022-09-15T06:24:00.768Z,58.08
2022-09-15T06:25:00.739Z,58.24
2022-09-15T06:26:00.732Z,59.45
2022-09-15T06:27:00.724Z,59.72
2022-09-15T06:28:00.712Z,60.73
2022-09-15T06:29:00.696Z,59.04
2022-09-15T06:30:00.700Z,60.05
2022-09-15T06:31:00.684Z,62.74
2022-09-15T06:32:00.769Z,60.35
2022-09-15T06:33:00.684Z,61.91
2022-09-15T06:34:00.666Z,62.21
2022-09-15T06:35:00.664Z,61.54
2022-09-15T06:36:00.654Z,61.50
2022-09-15T06:37:00.636Z,60.16
2022-09-15T06:38:00.667Z,61.51
2022-09-15T06:39:00.628Z,61.61
2022-09-15T06:40:00.639Z,58.20
2022-09-15T06:41:00.610Z,59.65
2022-09-15T06:42:03.222Z,59.86
2022-09-15T06:43:01.600Z,61.98
2022-09-15T06:44:00.592Z,59.85
2022-09-15T06:45:00.581Z,60.02
2022-09-15T06:46:00.606Z,61.05
2022-09-15T06:47:00.588Z,60.31
2022-09-15T06:48:22.960Z,61.35
2022-09-15T06:49:02.557Z,59.18
2022-09-15T06:50:00.577Z,60.24
2022-09-15T06:51:00.536Z,58.87
2022-09-15T06:52:00.527Z,60.47
2022-09-15T06:53:00.523Z,60.18
2022-09-15T06:54:00.518Z,60.03
2022-09-15T06:55:00.523Z,59.25
2022-09-15T06:56:00.504Z,59.45
2022-09-15T06:57:00.495Z,58.59
2022-09-15T06:58:00.491Z,58.69
2022-09-15T06:59:00.476Z,58.68
2022-09-15T07:00:00.491Z,59.93
2022-09-15T07:01:00.468Z,59.82
2022-09-15T07:02:04.873Z,60.85
2022-09-15T07:03:01.577Z,60.07
2022-09-15T07:04:00.448Z,59.59
2022-09-15T07:05:00.440Z,58.97
2022-09-15T07:06:00.446Z,58.92
2022-09-15T07:07:00.419Z,60.34
2022-09-15T07:08:00.415Z,60.09
2022-09-15T07:09:00.403Z,58.15
2022-09-15T07:10:00.403Z,58.85
2022-09-15T07:11:00.407Z,59.35
2022-09-15T07:12:00.388Z,59.50
2022-09-15T07:13:00.383Z,58.34
2022-09-15T07:14:00.371Z,59.94
2022-09-15T07:15:00.359Z,58.99
2022-09-15T07:16:00.424Z,61.02
2022-09-15T07:17:00.399Z,60.84
2022-09-15T07:18:00.332Z,60.35
2022-09-15T07:19:00.333Z,61.60
2022-09-15T07:20:00.327Z,58.95
2022-09-15T07:21:00.334Z,60.29
2022-09-15T07:22:00.316Z,60.22
2022-09-15T07:23:00.298Z,59.39
2022-09-15T07:24:05.013Z,59.61
2022-09-15T07:25:02.293Z,59.58
2022-09-15T07:26:00.283Z,60.43
2022-09-15T07:27:00.292Z,59.06
2022-09-15T07:28:00.276Z,59.22
2022-09-15T07:29:00.264Z,60.70
2022-09-15T07:30:00.255Z,58.48
2022-09-15T07:31:00.266Z,61.02
2022-09-15T07:32:00.290Z,59.32
2022-09-15T07:33:00.225Z,60.55
2022-09-15T07:34:00.227Z,59.50
2022-09-15T07:35:00.223Z,61.83
2022-09-15T07:36:00.219Z,60.99
2022-09-15T07:37:00.223Z,60.06
2022-09-15T07:38:00.195Z,60.05
2022-09-15T07:39:00.200Z,59.94
2022-09-15T07:40:00.324Z,59.31
2022-09-15T07:41:00.176Z,60.57
2022-09-15T07:42:00.194Z,59.18
2022-09-15T07:43:00.166Z,59.58
2022-09-15T07:44:00.159Z,59.44
2022-09-15T07:45:00.161Z,57.61
2022-09-15T07:46:00.243Z,59.19
2022-09-15T07:47:00.143Z,59.21
2022-09-15T07:48:00.126Z,61.00
2022-09-15T07:49:00.126Z,60.40
2022-09-15T07:50:00.173Z,60.60
2022-09-15T07:51:00.166Z,59.82
2022-09-15T07:52:00.119Z,58.07
2022-09-15T07:53:00.101Z,58.55
2022-09-15T07:54:00.093Z,59.79
2022-09-15T07:55:00.087Z,58.77
2022-09-15T07:56:00.077Z,56.89
2022-09-15T07:57:00.087Z,59.55
2022-09-15T07:58:00.073Z,59.51
2022-09-15T07:59:00.052Z,60.24
2022-09-15T08:00:00.055Z,60.26
2022-09-15T08:01:00.115Z,59.06
2022-09-15T08:02:00.121Z,58.59
2022-09-15T08:03:00.030Z,58.33
2022-09-15T08:04:00.029Z,59.67
2022-09-15T08:05:00.007Z,60.16
2022-09-15T08:06:00.013Z,59.93
2022-09-15T08:07:00.011Z,58.43
2022-09-15T08:07:59.991Z,59.67
2022-09-15T08:09:01.080Z,59.49
2022-09-15T08:10:00.979Z,59.65
2022-09-15T08:11:00.846Z,57.82
2022-09-15T08:11:59.976Z,58.35
2022-09-15T08:12:59.956Z,57.45
2022-09-15T08:13:59.985Z,57.04
2022-09-15T08:14:59.948Z,58.10
2022-09-15T08:15:59.971Z,58.13
2022-09-15T08:16:59.936Z,57.32
2022-09-15T08:17:59.927Z,57.30
2022-09-15T08:18:59.915Z,58.94
2022-09-15T08:19:59.920Z,59.08
2022-09-15T08:20:59.914Z,59.33
2022-09-15T08:21:59.921Z,59.23
2022-09-15T08:22:59.894Z,60.75
2022-09-15T08:23:59.878Z,59.88
2022-09-15T08:24:59.895Z,60.98
2022-09-15T08:25:59.867Z,58.07
2022-09-15T08:26:59.882Z,60.03
2022-09-15T08:27:59.862Z,59.09
2022-09-15T08:28:59.863Z,59.60
2022-09-15T08:29:59.831Z,58.51
2022-09-15T08:31:00.878Z,58.34
2022-09-15T08:31:59.846Z,58.72
2022-09-15T08:32:59.827Z,60.13
2022-09-15T08:33:59.819Z,57.01
2022-09-15T08:34:59.824Z,58.45
2022-09-15T08:35:59.804Z,59.84
2022-09-15T08:36:59.799Z,59.82
2022-09-15T08:37:59.828Z,58.81
2022-09-15T08:38:59.783Z,60.61
2022-09-15T08:39:59.814Z,58.86
2022-09-15T08:40:59.782Z,60.06
2022-09-15T08:41:59.790Z,59.02
2022-09-15T08:42:59.817Z,56.67
2022-09-15T08:43:59.762Z,59.04
2022-09-15T08:44:59.742Z,60.10
2022-09-15T08:45:59.815Z,58.36
2022-09-15T08:46:59.747Z,58.31
2022-09-15T08:47:59.722Z,57.18
2022-09-15T08:49:02.971Z,56.29
2022-09-15T08:50:00.721Z,57.01
2022-09-15T08:50:59.707Z,58.70
2022-09-15T08:51:59.696Z,58.12
2022-09-15T08:52:59.695Z,56.76
2022-09-15T08:53:59.758Z,57.94
2022-09-15T08:54:59.674Z,56.53
2022-09-15T08:55:59.671Z,57.78
2022-09-15T08:56:59.658Z,57.47
2022-09-15T08:57:59.655Z,59.85
2022-09-15T08:58:59.663Z,58.22
2022-09-15T08:59:59.665Z,57.75
2022-09-15T09:00:59.639Z,60.48
2022-09-15T09:01:59.696Z,59.89
2022-09-15T09:02:59.771Z,60.40
2022-09-15T09:03:59.627Z,59.10
2022-09-15T09:04:59.614Z,58.90
2022-09-15T09:05:59.602Z,56.39
2022-09-15T09:06:59.594Z,58.05
2022-09-15T09:07:59.595Z,57.45
2022-09-15T09:08:59.606Z,56.99
2022-09-15T09:09:59.574Z,61.74
2022-09-15T09:10:59.571Z,61.05
2022-09-15T09:11:59.566Z,59.39
2022-09-15T09:12:59.591Z,58.83
2022-09-15T09:13:59.559Z,58.70
2022-09-15T09:14:59.555Z,64.57
2022-09-15T09:15:59.586Z,57.98
2022-09-15T09:16:59.527Z,59.94
2022-09-15T09:17:59.526Z,59.88
2022-09-15T09:18:59.518Z,58.38
2022-09-15T09:19:59.570Z,58.25
2022-09-15T09:20:59.505Z,60.83
2022-09-15T09:21:59.499Z,59.41
2022-09-15T09:22:59.486Z,59.90
2022-09-15T09:23:59.490Z,59.41
2022-09-15T09:24:59.490Z,60.62
2022-09-15T09:25:59.467Z,59.18
2022-09-15T09:26:59.454Z,59.73
2022-09-15T09:27:59.450Z,58.92
2022-09-15T09:28:59.439Z,58.45
2022-09-15T09:29:59.443Z,58.44
2022-09-15T09:30:59.528Z,58.70
2022-09-15T09:31:59.420Z,59.95
2022-09-15T09:32:59.422Z,59.83
2022-09-15T09:33:59.406Z,61.48
2022-09-15T09:34:59.410Z,62.71
2022-09-15T09:35:59.402Z,65.11
2022-09-15T09:36:59.379Z,67.49
2022-09-15T09:37:59.377Z,63.40
2022-09-15T09:38:59.410Z,66.15
2022-09-15T09:39:59.466Z,67.18
2022-09-15T09:41:02.268Z,74.33
2022-09-15T09:42:00.343Z,76.71
2022-09-15T09:43:00.346Z,70.72
2022-09-15T09:43:59.347Z,59.19
2022-09-15T09:44:59.336Z,58.09
2022-09-15T09:45:59.436Z,58.28
2022-09-15T09:46:59.325Z,67.59
2022-09-15T09:48:01.616Z,66.70
2022-09-15T09:49:00.308Z,60.64
2022-09-15T09:49:59.303Z,59.83
2022-09-15T09:50:59.364Z,58.78
2022-09-15T09:51:59.278Z,58.83
2022-09-15T09:52:59.286Z,57.04
2022-09-15T09:53:59.274Z,58.14
2022-09-15T09:54:59.272Z,58.87
2022-09-15T09:55:59.281Z,57.21
2022-09-15T09:56:59.250Z,58.39
2022-09-15T09:57:59.266Z,65.85
2022-09-15T09:58:59.251Z,68.43
2022-09-15T09:59:59.231Z,62.14
2022-09-15T10:00:59.348Z,67.59
2022-09-15T10:01:59.230Z,68.16
2022-09-15T10:02:59.238Z,58.31
2022-09-15T10:03:59.206Z,64.40
2022-09-15T10:04:59.264Z,79.72
2022-09-15T10:05:59.189Z,77.81
2022-09-15T10:06:59.195Z,80.79
2022-09-15T10:07:59.222Z,84.17
2022-09-15T10:08:59.166Z,70.52
2022-09-15T10:09:59.162Z,57.06
2022-09-15T10:10:59.158Z,57.46
2022-09-15T10:11:59.140Z,57.02
2022-09-15T10:12:59.162Z,58.05
2022-09-15T10:13:59.133Z,56.98
2022-09-15T10:14:59.113Z,58.20
2022-09-15T10:15:59.138Z,59.26
2022-09-15T10:16:59.131Z,58.67
2022-09-15T10:17:59.109Z,56.47
2022-09-15T10:18:59.115Z,57.72
2022-09-15T10:19:59.090Z,57.93
2022-09-15T10:20:59.069Z,57.56
2022-09-15T10:21:59.076Z,57.93
2022-09-15T10:22:59.066Z,62.33
2022-09-15T10:23:59.070Z,66.53
2022-09-15T10:24:59.073Z,66.64
2022-09-15T10:26:00.379Z,66.70
2022-09-15T10:27:00.038Z,63.22
2022-09-15T10:27:59.042Z,66.54
2022-09-15T10:28:59.043Z,74.80
2022-09-15T10:29:59.018Z,69.34
2022-09-15T10:30:59.009Z,57.88
2022-09-15T10:31:59.096Z,63.19
2022-09-15T10:32:58.996Z,61.88
2022-09-15T10:33:58.991Z,61.40
2022-09-15T10:34:59.008Z,58.02
2022-09-15T10:35:58.979Z,62.75
2022-09-15T10:36:58.973Z,71.37
2022-09-15T10:37:58.969Z,58.82
2022-09-15T10:38:58.954Z,56.77
2022-09-15T10:39:59.041Z,59.93
2022-09-15T10:40:58.942Z,60.03
2022-09-15T10:41:58.969Z,59.04
2022-09-15T10:42:58.950Z,58.69
2022-09-15T10:43:58.933Z,58.50
2022-09-15T10:44:58.946Z,63.05
2022-09-15T10:45:58.938Z,58.04
2022-09-15T10:46:58.912Z,55.11
2022-09-15T10:47:58.893Z,56.80
2022-09-15T10:48:58.885Z,58.63
2022-09-15T10:49:58.877Z,57.73
2022-09-15T10:50:58.885Z,59.58
2022-09-15T10:51:58.870Z,58.72
2022-09-15T10:52:58.858Z,58.35
2022-09-15T10:53:58.969Z,60.93
2022-09-15T10:54:58.854Z,56.85
2022-09-15T10:55:58.837Z,55.81
2022-09-15T10:56:58.836Z,56.96
2022-09-15T10:57:58.825Z,57.86
2022-09-15T10:58:58.828Z,58.37
2022-09-15T10:59:58.813Z,58.44
2022-09-15T11:00:58.903Z,58.21
2022-09-15T11:01:58.852Z,58.63
2022-09-15T11:02:58.791Z,58.41
2022-09-15T11:03:58.793Z,57.04
2022-09-15T11:04:58.778Z,61.10
2022-09-15T11:05:58.783Z,59.86
2022-09-15T11:06:58.745Z,61.71
2022-09-15T11:07:58.761Z,55.66
2022-09-15T11:08:58.758Z,58.89
2022-09-15T11:09:58.749Z,58.40
2022-09-15T11:10:58.749Z,57.52
2022-09-15T11:11:58.730Z,60.17
2022-09-15T11:12:58.722Z,56.04
2022-09-15T11:13:58.707Z,58.67
2022-09-15T11:14:58.712Z,58.76
2022-09-15T11:15:58.730Z,57.87
2022-09-15T11:16:58.722Z,56.76
2022-09-15T11:17:58.682Z,58.67
2022-09-15T11:18:58.673Z,57.58
2022-09-15T11:19:58.673Z,56.20
2022-09-15T11:20:58.665Z,53.31
2022-09-15T11:21:58.669Z,55.97
2022-09-15T11:22:58.653Z,56.41
2022-09-15T11:23:58.651Z,55.02
2022-09-15T11:24:58.641Z,54.66
2022-09-15T11:25:58.634Z,55.87
2022-09-15T11:26:58.625Z,54.76
2022-09-15T11:27:58.642Z,55.76
2022-09-15T11:28:58.609Z,55.62
2022-09-15T11:29:58.605Z,56.19
2022-09-15T11:30:58.617Z,61.00
2022-09-15T11:31:58.678Z,58.86
2022-09-15T11:32:58.604Z,57.96
2022-09-15T11:33:58.568Z,57.33
2022-09-15T11:34:58.577Z,56.06
2022-09-15T11:35:58.681Z,57.34
2022-09-15T11:36:58.557Z,59.35
2022-09-15T11:37:58.552Z,58.69
2022-09-15T11:38:58.565Z,59.31
2022-09-15T11:39:58.576Z,57.31
2022-09-15T11:40:58.583Z,56.88
2022-09-15T11:41:58.525Z,57.06
2022-09-15T11:42:58.557Z,59.32
2022-09-15T11:43:58.569Z,57.94
2022-09-15T11:44:58.502Z,58.83
2022-09-15T11:45:58.503Z,58.46
2022-09-15T11:46:58.625Z,58.22
2022-09-15T11:47:58.480Z,58.47
2022-09-15T11:48:58.478Z,58.00
2022-09-15T11:49:58.474Z,58.61
2022-09-15T11:50:58.463Z,58.79
2022-09-15T11:51:58.458Z,58.28
2022-09-15T11:52:58.447Z,57.65
2022-09-15T11:53:58.454Z,57.92
2022-09-15T11:54:58.454Z,57.31
2022-09-15T11:55:58.425Z,57.85
2022-09-15T11:56:58.422Z,58.69
2022-09-15T11:57:58.422Z,58.63
2022-09-15T11:58:58.402Z,59.33
2022-09-15T11:59:58.405Z,58.86
2022-09-15T12:00:58.410Z,59.29
2022-09-15T12:01:58.413Z,59.48
2022-09-15T12:02:58.434Z,58.75
2022-09-15T12:03:58.375Z,59.72
2022-09-15T12:04:59.374Z,59.14
2022-09-15T12:05:58.375Z,59.51
2022-09-15T12:07:58.350Z,58.94
2022-09-15T12:08:58.342Z,58.60
2022-09-15T12:09:58.342Z,57.73
2022-09-15T12:10:58.323Z,58.98
2022-09-15T12:11:58.329Z,59.67
2022-09-15T12:12:58.314Z,58.55
2022-09-15T12:13:58.309Z,59.35
2022-09-15T12:14:58.317Z,57.85
2022-09-15T12:15:58.348Z,59.49
2022-09-15T12:16:58.288Z,61.09
2022-09-15T12:17:58.275Z,59.47
2022-09-15T12:18:58.273Z,59.27
2022-09-15T12:19:58.283Z,58.44
2022-09-15T12:20:58.256Z,62.33
2022-09-15T12:21:58.252Z,59.39
2022-09-15T12:22:58.239Z,59.14
2022-09-15T12:23:58.240Z,60.80
2022-09-15T12:25:00.951Z,61.49
2022-09-15T12:25:59.223Z,58.94
2022-09-15T12:26:58.212Z,58.56
2022-09-15T12:27:58.208Z,60.68
2022-09-15T12:28:58.198Z,58.44
2022-09-15T12:29:58.219Z,59.96
2022-09-15T12:30:58.225Z,62.01
2022-09-15T12:31:58.180Z,59.94
2022-09-15T12:32:58.163Z,60.08
2022-09-15T12:33:59.168Z,59.51
2022-09-15T12:34:58.166Z,60.82
2022-09-15T12:35:58.181Z,59.62
2022-09-15T12:36:58.144Z,60.71
2022-09-15T12:37:58.145Z,59.61
2022-09-15T12:38:58.132Z,59.37
2022-09-15T12:39:58.227Z,58.95
2022-09-15T12:40:58.135Z,59.50
2022-09-15T12:41:58.122Z,60.31
2022-09-15T12:42:58.120Z,61.22
2022-09-15T12:43:58.103Z,60.05
2022-09-15T12:44:58.091Z,59.18
2022-09-15T12:45:58.144Z,60.48
2022-09-15T12:46:58.092Z,59.42
2022-09-15T12:47:58.088Z,59.34
2022-09-15T12:48:58.075Z,59.57
2022-09-15T12:49:58.100Z,60.67
2022-09-15T12:50:58.059Z,61.82
2022-09-15T12:51:58.051Z,60.68
2022-09-15T12:52:58.072Z,61.27